sensor_id;sensor_type;location;lat;lon;timestamp;P1;durP1;ratioP1;P2;durP2;ratioP2
27857;SDS011;16852;51.446;6.528;2023-04-25T00:01:28;8.88;;;3.67;;
27857;SDS011;16852;51.446;6.528;2023-04-25T00:03:28;10.25;;;3.88;;
27857;SDS011;16852;51.446;6.528;2023-04-25T00:05:29;11.05;;;4.00;;
27857;SDS011;16852;51.446;6.528;2023-04-25T00:07:30;10.93;;;4.15;;
27857;SDS011;16852;51.446;6.528;2023-04-25T00:09:32;10.38;;;4.45;;
27857;SDS011;16852;51.446;6.528;2023-04-25T00:11:33;13.07;;;4.10;;
27857;SDS011;16852;51.446;6.528;2023-04-25T00:13:34;8.82;;;3.67;;
27857;SDS011;16852;51.446;6.528;2023-04-25T00:15:34;9.82;;;3.63;;
27857;SDS011;16852;51.446;6.528;2023-04-25T00:17:36;9.60;;;3.92;;
27857;SDS011;16852;51.446;6.528;2023-04-25T00:19:38;12.68;;;3.92;;
27857;SDS011;16852;51.446;6.528;2023-04-25T00:21:38;12.90;;;4.20;;
27857;SDS011;16852;51.446;6.528;2023-04-25T00:23:40;15.47;;;4.80;;
27857;SDS011;16852;51.446;6.528;2023-04-25T00:25:41;14.27;;;4.57;;
27857;SDS011;16852;51.446;6.528;2023-04-25T00:27:41;8.48;;;3.53;;
27857;SDS011;16852;51.446;6.528;2023-04-25T00:29:42;10.90;;;4.28;;
27857;SDS011;16852;51.446;6.528;2023-04-25T00:31:43;8.35;;;4.00;;
27857;SDS011;16852;51.446;6.528;2023-04-25T00:33:43;11.30;;;4.22;;
27857;SDS011;16852;51.446;6.528;2023-04-25T00:35:44;13.48;;;4.30;;
27857;SDS011;16852;51.446;6.528;2023-04-25T00:37:45;10.43;;;4.07;;
27857;SDS011;16852;51.446;6.528;2023-04-25T00:39:45;10.48;;;4.05;;
27857;SDS011;16852;51.446;6.528;2023-04-25T00:41:46;13.80;;;4.38;;
27857;SDS011;16852;51.446;6.528;2023-04-25T00:43:48;14.18;;;4.22;;
27857;SDS011;16852;51.446;6.528;2023-04-25T00:45:49;13.13;;;4.50;;
27857;SDS011;16852;51.446;6.528;2023-04-25T00:47:52;10.18;;;4.10;;
27857;SDS011;16852;51.446;6.528;2023-04-25T00:49:52;10.13;;;4.25;;
27857;SDS011;16852;51.446;6.528;2023-04-25T00:51:53;7.72;;;3.90;;
27857;SDS011;16852;51.446;6.528;2023-04-25T00:53:54;15.93;;;4.60;;
27857;SDS011;16852;51.446;6.528;2023-04-25T00:55:55;9.82;;;3.97;;
27857;SDS011;16852;51.446;6.528;2023-04-25T00:57:56;12.20;;;4.45;;
27857;SDS011;16852;51.446;6.528;2023-04-25T00:59:56;9.18;;;3.83;;
27857;SDS011;16852;51.446;6.528;2023-04-25T01:01:58;12.38;;;4.22;;
27857;SDS011;16852;51.446;6.528;2023-04-25T01:03:59;7.88;;;3.92;;
27857;SDS011;16852;51.446;6.528;2023-04-25T01:06:01;13.77;;;4.87;;
27857;SDS011;16852;51.446;6.528;2023-04-25T01:08:02;10.10;;;4.05;;
27857;SDS011;16852;51.446;6.528;2023-04-25T01:10:04;9.75;;;3.60;;
27857;SDS011;16852;51.446;6.528;2023-04-25T01:12:06;10.93;;;4.57;;
27857;SDS011;16852;51.446;6.528;2023-04-25T01:14:06;12.70;;;4.10;;
27857;SDS011;16852;51.446;6.528;2023-04-25T01:16:07;11.27;;;4.25;;
27857;SDS011;16852;51.446;6.528;2023-04-25T01:18:08;10.40;;;4.30;;
27857;SDS011;16852;51.446;6.528;2023-04-25T01:20:09;8.63;;;4.25;;
27857;SDS011;16852;51.446;6.528;2023-04-25T01:22:10;7.65;;;4.05;;
27857;SDS011;16852;51.446;6.528;2023-04-25T01:24:12;13.60;;;4.30;;
27857;SDS011;16852;51.446;6.528;2023-04-25T01:26:12;10.45;;;4.18;;
27857;SDS011;16852;51.446;6.528;2023-04-25T01:28:13;13.68;;;4.40;;
27857;SDS011;16852;51.446;6.528;2023-04-25T01:30:14;11.02;;;3.80;;
27857;SDS011;16852;51.446;6.528;2023-04-25T01:32:15;12.20;;;4.53;;
27857;SDS011;16852;51.446;6.528;2023-04-25T01:34:16;11.30;;;3.70;;
27857;SDS011;16852;51.446;6.528;2023-04-25T01:36:17;13.82;;;4.43;;
27857;SDS011;16852;51.446;6.528;2023-04-25T01:38:18;12.63;;;4.20;;
27857;SDS011;16852;51.446;6.528;2023-04-25T01:40:18;11.32;;;4.03;;
27857;SDS011;16852;51.446;6.528;2023-04-25T01:42:21;14.40;;;4.07;;
27857;SDS011;16852;51.446;6.528;2023-04-25T01:44:22;11.23;;;4.20;;
27857;SDS011;16852;51.446;6.528;2023-04-25T01:46:22;10.45;;;3.90;;
27857;SDS011;16852;51.446;6.528;2023-04-25T01:48:23;8.55;;;3.63;;
27857;SDS011;16852;51.446;6.528;2023-04-25T01:50:24;7.32;;;3.35;;
27857;SDS011;16852;51.446;6.528;2023-04-25T01:52:25;10.57;;;3.50;;
27857;SDS011;16852;51.446;6.528;2023-04-25T01:54:26;10.02;;;4.07;;
27857;SDS011;16852;51.446;6.528;2023-04-25T01:56:29;11.52;;;4.22;;
27857;SDS011;16852;51.446;6.528;2023-04-25T01:58:36;7.60;;;3.20;;
27857;SDS011;16852;51.446;6.528;2023-04-25T02:00:36;12.40;;;3.75;;
27857;SDS011;16852;51.446;6.528;2023-04-25T02:02:38;10.93;;;3.80;;
27857;SDS011;16852;51.446;6.528;2023-04-25T02:04:39;12.50;;;3.83;;
27857;SDS011;16852;51.446;6.528;2023-04-25T02:06:39;12.90;;;3.88;;
27857;SDS011;16852;51.446;6.528;2023-04-25T02:08:40;7.40;;;2.92;;
27857;SDS011;16852;51.446;6.528;2023-04-25T02:10:41;11.18;;;3.15;;
27857;SDS011;16852;51.446;6.528;2023-04-25T02:12:41;9.05;;;3.05;;
27857;SDS011;16852;51.446;6.528;2023-04-25T02:14:42;8.02;;;2.95;;
27857;SDS011;16852;51.446;6.528;2023-04-25T02:16:42;9.93;;;3.47;;
27857;SDS011;16852;51.446;6.528;2023-04-25T02:18:43;10.02;;;3.58;;
27857;SDS011;16852;51.446;6.528;2023-04-25T02:20:44;11.52;;;3.53;;
27857;SDS011;16852;51.446;6.528;2023-04-25T02:22:45;11.15;;;3.72;;
27857;SDS011;16852;51.446;6.528;2023-04-25T02:24:46;10.18;;;3.58;;
27857;SDS011;16852;51.446;6.528;2023-04-25T02:26:46;9.43;;;3.75;;
27857;SDS011;16852;51.446;6.528;2023-04-25T02:28:49;14.38;;;3.78;;
27857;SDS011;16852;51.446;6.528;2023-04-25T02:30:50;11.95;;;3.70;;
27857;SDS011;16852;51.446;6.528;2023-04-25T02:32:51;12.20;;;4.00;;
27857;SDS011;16852;51.446;6.528;2023-04-25T02:34:51;13.65;;;4.18;;
27857;SDS011;16852;51.446;6.528;2023-04-25T02:36:52;12.05;;;4.05;;
27857;SDS011;16852;51.446;6.528;2023-04-25T02:38:53;11.85;;;3.58;;
27857;SDS011;16852;51.446;6.528;2023-04-25T02:40:53;9.93;;;3.60;;
27857;SDS011;16852;51.446;6.528;2023-04-25T02:42:54;11.77;;;3.35;;
27857;SDS011;16852;51.446;6.528;2023-04-25T02:44:54;12.15;;;3.50;;
27857;SDS011;16852;51.446;6.528;2023-04-25T02:46:55;8.75;;;3.22;;
27857;SDS011;16852;51.446;6.528;2023-04-25T02:48:56;11.00;;;3.00;;
27857;SDS011;16852;51.446;6.528;2023-04-25T02:50:56;9.65;;;3.55;;
27857;SDS011;16852;51.446;6.528;2023-04-25T02:52:57;10.88;;;4.05;;
27857;SDS011;16852;51.446;6.528;2023-04-25T02:54:57;10.82;;;3.88;;
27857;SDS011;16852;51.446;6.528;2023-04-25T02:56:58;10.25;;;3.55;;
27857;SDS011;16852;51.446;6.528;2023-04-25T02:58:58;11.10;;;3.80;;
27857;SDS011;16852;51.446;6.528;2023-04-25T03:00:59;11.02;;;3.83;;
27857;SDS011;16852;51.446;6.528;2023-04-25T03:03:00;14.70;;;4.30;;
27857;SDS011;16852;51.446;6.528;2023-04-25T03:05:01;13.48;;;3.85;;
27857;SDS011;16852;51.446;6.528;2023-04-25T03:07:03;9.93;;;3.67;;
27857;SDS011;16852;51.446;6.528;2023-04-25T03:09:05;18.40;;;4.20;;
27857;SDS011;16852;51.446;6.528;2023-04-25T03:11:06;11.45;;;3.95;;
27857;SDS011;16852;51.446;6.528;2023-04-25T03:13:06;15.20;;;3.80;;
27857;SDS011;16852;51.446;6.528;2023-04-25T03:15:07;13.02;;;4.03;;
27857;SDS011;16852;51.446;6.528;2023-04-25T03:17:08;15.10;;;4.13;;
27857;SDS011;16852;51.446;6.528;2023-04-25T03:19:08;11.73;;;3.92;;
27857;SDS011;16852;51.446;6.528;2023-04-25T03:21:09;16.23;;;3.95;;
27857;SDS011;16852;51.446;6.528;2023-04-25T03:23:09;9.43;;;3.75;;
27857;SDS011;16852;51.446;6.528;2023-04-25T03:25:10;11.40;;;3.65;;
27857;SDS011;16852;51.446;6.528;2023-04-25T03:27:11;10.57;;;3.85;;
27857;SDS011;16852;51.446;6.528;2023-04-25T03:29:11;17.63;;;4.72;;
27857;SDS011;16852;51.446;6.528;2023-04-25T03:31:12;10.80;;;3.80;;
27857;SDS011;16852;51.446;6.528;2023-04-25T03:33:12;15.25;;;4.70;;
27857;SDS011;16852;51.446;6.528;2023-04-25T03:35:13;17.17;;;4.22;;
27857;SDS011;16852;51.446;6.528;2023-04-25T03:37:13;18.10;;;4.50;;
27857;SDS011;16852;51.446;6.528;2023-04-25T03:39:14;16.55;;;4.57;;
27857;SDS011;16852;51.446;6.528;2023-04-25T03:41:15;20.10;;;4.82;;
27857;SDS011;16852;51.446;6.528;2023-04-25T03:43:16;13.68;;;4.55;;
27857;SDS011;16852;51.446;6.528;2023-04-25T03:45:17;19.45;;;3.67;;
27857;SDS011;16852;51.446;6.528;2023-04-25T03:47:17;17.70;;;4.72;;
27857;SDS011;16852;51.446;6.528;2023-04-25T03:49:18;12.25;;;3.90;;
27857;SDS011;16852;51.446;6.528;2023-04-25T03:51:18;12.38;;;4.32;;
27857;SDS011;16852;51.446;6.528;2023-04-25T03:53:19;12.95;;;4.20;;
27857;SDS011;16852;51.446;6.528;2023-04-25T03:55:20;12.55;;;4.13;;
27857;SDS011;16852;51.446;6.528;2023-04-25T03:57:20;14.98;;;4.47;;
27857;SDS011;16852;51.446;6.528;2023-04-25T03:59:21;15.63;;;4.57;;
27857;SDS011;16852;51.446;6.528;2023-04-25T04:01:21;16.95;;;4.88;;
27857;SDS011;16852;51.446;6.528;2023-04-25T04:03:22;17.17;;;4.20;;
27857;SDS011;16852;51.446;6.528;2023-04-25T04:05:23;17.48;;;4.97;;
27857;SDS011;16852;51.446;6.528;2023-04-25T04:07:23;16.42;;;4.72;;
27857;SDS011;16852;51.446;6.528;2023-04-25T04:09:24;9.30;;;3.42;;
27857;SDS011;16852;51.446;6.528;2023-04-25T04:11:25;15.02;;;4.07;;
27857;SDS011;16852;51.446;6.528;2023-04-25T04:13:26;12.70;;;4.00;;
27857;SDS011;16852;51.446;6.528;2023-04-25T04:15:27;10.80;;;3.83;;
27857;SDS011;16852;51.446;6.528;2023-04-25T04:17:27;18.10;;;4.65;;
27857;SDS011;16852;51.446;6.528;2023-04-25T04:19:28;14.68;;;4.22;;
27857;SDS011;16852;51.446;6.528;2023-04-25T04:21:28;14.20;;;4.43;;
27857;SDS011;16852;51.446;6.528;2023-04-25T04:23:29;14.75;;;4.30;;
27857;SDS011;16852;51.446;6.528;2023-04-25T04:25:31;12.32;;;4.68;;
27857;SDS011;16852;51.446;6.528;2023-04-25T04:27:31;13.50;;;4.45;;
27857;SDS011;16852;51.446;6.528;2023-04-25T04:29:32;9.02;;;3.90;;
27857;SDS011;16852;51.446;6.528;2023-04-25T04:31:33;11.10;;;3.72;;
27857;SDS011;16852;51.446;6.528;2023-04-25T04:33:33;14.10;;;4.18;;
27857;SDS011;16852;51.446;6.528;2023-04-25T04:35:34;10.77;;;4.18;;
27857;SDS011;16852;51.446;6.528;2023-04-25T04:37:35;15.77;;;3.85;;
27857;SDS011;16852;51.446;6.528;2023-04-25T04:39:36;11.73;;;3.90;;
27857;SDS011;16852;51.446;6.528;2023-04-25T04:41:37;10.60;;;3.22;;
27857;SDS011;16852;51.446;6.528;2023-04-25T04:43:37;13.90;;;4.50;;
27857;SDS011;16852;51.446;6.528;2023-04-25T04:45:39;16.38;;;4.03;;
27857;SDS011;16852;51.446;6.528;2023-04-25T04:47:40;13.13;;;4.45;;
27857;SDS011;16852;51.446;6.528;2023-04-25T04:49:40;16.50;;;4.35;;
27857;SDS011;16852;51.446;6.528;2023-04-25T04:51:41;12.35;;;3.40;;
27857;SDS011;16852;51.446;6.528;2023-04-25T04:53:44;13.95;;;4.15;;
27857;SDS011;16852;51.446;6.528;2023-04-25T04:55:44;9.77;;;3.75;;
27857;SDS011;16852;51.446;6.528;2023-04-25T04:57:46;15.23;;;5.13;;
27857;SDS011;16852;51.446;6.528;2023-04-25T04:59:46;14.23;;;4.18;;
27857;SDS011;16852;51.446;6.528;2023-04-25T05:01:47;9.55;;;3.80;;
27857;SDS011;16852;51.446;6.528;2023-04-25T05:03:47;16.05;;;4.15;;
27857;SDS011;16852;51.446;6.528;2023-04-25T05:05:48;14.10;;;3.97;;
27857;SDS011;16852;51.446;6.528;2023-04-25T05:07:48;9.90;;;3.80;;
27857;SDS011;16852;51.446;6.528;2023-04-25T05:09:49;15.43;;;4.32;;
27857;SDS011;16852;51.446;6.528;2023-04-25T05:11:50;18.40;;;4.50;;
27857;SDS011;16852;51.446;6.528;2023-04-25T05:13:53;11.93;;;3.83;;
27857;SDS011;16852;51.446;6.528;2023-04-25T05:15:54;15.32;;;5.55;;
27857;SDS011;16852;51.446;6.528;2023-04-25T05:17:54;20.27;;;9.30;;
27857;SDS011;16852;51.446;6.528;2023-04-25T05:19:55;20.95;;;8.82;;
27857;SDS011;16852;51.446;6.528;2023-04-25T05:21:56;19.58;;;7.18;;
27857;SDS011;16852;51.446;6.528;2023-04-25T05:23:56;21.45;;;7.07;;
27857;SDS011;16852;51.446;6.528;2023-04-25T05:25:57;20.75;;;7.82;;
27857;SDS011;16852;51.446;6.528;2023-04-25T05:27:57;14.48;;;5.50;;
27857;SDS011;16852;51.446;6.528;2023-04-25T05:29:58;12.93;;;5.43;;
27857;SDS011;16852;51.446;6.528;2023-04-25T05:31:59;17.10;;;5.07;;
27857;SDS011;16852;51.446;6.528;2023-04-25T05:33:59;13.93;;;5.05;;
27857;SDS011;16852;51.446;6.528;2023-04-25T05:36:00;14.32;;;4.78;;
27857;SDS011;16852;51.446;6.528;2023-04-25T05:38:00;12.75;;;4.10;;
27857;SDS011;16852;51.446;6.528;2023-04-25T05:40:01;16.58;;;4.45;;
27857;SDS011;16852;51.446;6.528;2023-04-25T05:42:06;19.55;;;4.53;;
27857;SDS011;16852;51.446;6.528;2023-04-25T05:44:07;9.25;;;3.53;;
27857;SDS011;16852;51.446;6.528;2023-04-25T05:46:07;15.40;;;4.82;;
27857;SDS011;16852;51.446;6.528;2023-04-25T05:48:08;15.45;;;4.53;;
27857;SDS011;16852;51.446;6.528;2023-04-25T05:50:09;10.32;;;4.30;;
27857;SDS011;16852;51.446;6.528;2023-04-25T05:52:09;13.27;;;4.00;;
27857;SDS011;16852;51.446;6.528;2023-04-25T05:54:10;13.07;;;4.15;;
27857;SDS011;16852;51.446;6.528;2023-04-25T05:56:11;13.98;;;3.95;;
27857;SDS011;16852;51.446;6.528;2023-04-25T05:58:11;10.60;;;3.50;;
27857;SDS011;16852;51.446;6.528;2023-04-25T06:00:12;12.50;;;3.92;;
27857;SDS011;16852;51.446;6.528;2023-04-25T06:04:15;16.80;;;4.25;;
27857;SDS011;16852;51.446;6.528;2023-04-25T06:06:15;14.95;;;4.05;;
27857;SDS011;16852;51.446;6.528;2023-04-25T06:08:16;12.45;;;4.07;;
27857;SDS011;16852;51.446;6.528;2023-04-25T06:10:17;24.90;;;4.78;;
27857;SDS011;16852;51.446;6.528;2023-04-25T06:12:18;13.60;;;4.30;;
27857;SDS011;16852;51.446;6.528;2023-04-25T06:14:18;12.65;;;4.10;;
27857;SDS011;16852;51.446;6.528;2023-04-25T06:16:19;13.55;;;3.75;;
27857;SDS011;16852;51.446;6.528;2023-04-25T06:18:20;11.23;;;4.05;;
27857;SDS011;16852;51.446;6.528;2023-04-25T06:20:21;11.30;;;3.90;;
27857;SDS011;16852;51.446;6.528;2023-04-25T06:22:23;11.07;;;3.45;;
27857;SDS011;16852;51.446;6.528;2023-04-25T06:24:24;11.93;;;3.80;;
27857;SDS011;16852;51.446;6.528;2023-04-25T06:26:25;17.25;;;4.03;;
27857;SDS011;16852;51.446;6.528;2023-04-25T06:28:25;12.77;;;3.90;;
27857;SDS011;16852;51.446;6.528;2023-04-25T06:30:26;13.32;;;3.70;;
27857;SDS011;16852;51.446;6.528;2023-04-25T06:32:26;14.77;;;3.53;;
27857;SDS011;16852;51.446;6.528;2023-04-25T06:34:29;16.23;;;3.70;;
27857;SDS011;16852;51.446;6.528;2023-04-25T06:36:30;14.02;;;3.58;;
27857;SDS011;16852;51.446;6.528;2023-04-25T06:38:31;14.18;;;3.85;;
27857;SDS011;16852;51.446;6.528;2023-04-25T06:40:31;14.27;;;4.53;;
27857;SDS011;16852;51.446;6.528;2023-04-25T06:42:32;14.18;;;3.75;;
27857;SDS011;16852;51.446;6.528;2023-04-25T06:44:32;13.80;;;3.72;;
27857;SDS011;16852;51.446;6.528;2023-04-25T06:46:33;13.88;;;3.47;;
27857;SDS011;16852;51.446;6.528;2023-04-25T06:48:33;17.35;;;3.95;;
27857;SDS011;16852;51.446;6.528;2023-04-25T06:50:34;17.75;;;3.85;;
27857;SDS011;16852;51.446;6.528;2023-04-25T06:52:34;13.00;;;3.30;;
27857;SDS011;16852;51.446;6.528;2023-04-25T06:54:35;13.50;;;3.83;;
27857;SDS011;16852;51.446;6.528;2023-04-25T06:56:35;13.60;;;3.85;;
27857;SDS011;16852;51.446;6.528;2023-04-25T06:58:36;10.65;;;3.50;;
27857;SDS011;16852;51.446;6.528;2023-04-25T07:00:37;11.73;;;3.92;;
27857;SDS011;16852;51.446;6.528;2023-04-25T07:02:37;11.23;;;3.10;;
27857;SDS011;16852;51.446;6.528;2023-04-25T07:04:38;12.77;;;3.33;;
27857;SDS011;16852;51.446;6.528;2023-04-25T07:06:39;11.98;;;3.08;;
27857;SDS011;16852;51.446;6.528;2023-04-25T07:08:42;12.10;;;3.33;;
27857;SDS011;16852;51.446;6.528;2023-04-25T07:10:43;14.20;;;3.95;;
27857;SDS011;16852;51.446;6.528;2023-04-25T07:12:43;10.20;;;2.65;;
27857;SDS011;16852;51.446;6.528;2023-04-25T07:14:44;11.10;;;2.80;;
27857;SDS011;16852;51.446;6.528;2023-04-25T07:16:45;12.18;;;3.20;;
27857;SDS011;16852;51.446;6.528;2023-04-25T07:18:45;15.48;;;3.53;;
27857;SDS011;16852;51.446;6.528;2023-04-25T07:20:46;9.43;;;2.88;;
27857;SDS011;16852;51.446;6.528;2023-04-25T07:22:46;9.30;;;2.88;;
27857;SDS011;16852;51.446;6.528;2023-04-25T07:24:47;7.25;;;2.72;;
27857;SDS011;16852;51.446;6.528;2023-04-25T07:26:48;8.98;;;2.95;;
27857;SDS011;16852;51.446;6.528;2023-04-25T07:28:49;12.07;;;3.05;;
27857;SDS011;16852;51.446;6.528;2023-04-25T07:30:51;8.17;;;2.47;;
27857;SDS011;16852;51.446;6.528;2023-04-25T07:32:51;9.00;;;3.00;;
27857;SDS011;16852;51.446;6.528;2023-04-25T07:34:52;12.02;;;3.05;;
27857;SDS011;16852;51.446;6.528;2023-04-25T07:36:52;10.77;;;2.90;;
27857;SDS011;16852;51.446;6.528;2023-04-25T07:38:53;5.53;;;1.98;;
27857;SDS011;16852;51.446;6.528;2023-04-25T07:40:54;6.75;;;2.65;;
27857;SDS011;16852;51.446;6.528;2023-04-25T07:42:54;10.77;;;2.97;;
27857;SDS011;16852;51.446;6.528;2023-04-25T07:44:55;11.50;;;3.00;;
27857;SDS011;16852;51.446;6.528;2023-04-25T07:46:56;7.90;;;2.70;;
27857;SDS011;16852;51.446;6.528;2023-04-25T07:48:56;6.72;;;2.40;;
27857;SDS011;16852;51.446;6.528;2023-04-25T07:50:57;11.32;;;2.53;;
27857;SDS011;16852;51.446;6.528;2023-04-25T07:52:58;9.07;;;2.63;;
27857;SDS011;16852;51.446;6.528;2023-04-25T07:54:58;11.73;;;2.85;;
27857;SDS011;16852;51.446;6.528;2023-04-25T07:56:59;5.80;;;2.15;;
27857;SDS011;16852;51.446;6.528;2023-04-25T07:58:59;15.38;;;3.50;;
27857;SDS011;16852;51.446;6.528;2023-04-25T08:01:00;10.50;;;2.45;;
27857;SDS011;16852;51.446;6.528;2023-04-25T08:03:01;8.05;;;2.38;;
27857;SDS011;16852;51.446;6.528;2023-04-25T08:05:02;6.93;;;1.77;;
27857;SDS011;16852;51.446;6.528;2023-04-25T08:07:03;7.50;;;2.25;;
27857;SDS011;16852;51.446;6.528;2023-04-25T08:09:04;11.07;;;2.58;;
27857;SDS011;16852;51.446;6.528;2023-04-25T08:11:04;7.82;;;1.92;;
27857;SDS011;16852;51.446;6.528;2023-04-25T08:13:05;5.97;;;2.00;;
27857;SDS011;16852;51.446;6.528;2023-04-25T08:15:06;7.10;;;2.00;;
27857;SDS011;16852;51.446;6.528;2023-04-25T08:17:07;7.57;;;2.25;;
27857;SDS011;16852;51.446;6.528;2023-04-25T08:19:07;6.90;;;2.10;;
27857;SDS011;16852;51.446;6.528;2023-04-25T08:21:08;9.63;;;2.53;;
27857;SDS011;16852;51.446;6.528;2023-04-25T08:23:11;8.63;;;2.40;;
27857;SDS011;16852;51.446;6.528;2023-04-25T08:25:12;6.05;;;1.90;;
27857;SDS011;16852;51.446;6.528;2023-04-25T08:27:12;5.63;;;2.10;;
27857;SDS011;16852;51.446;6.528;2023-04-25T08:29:13;9.60;;;2.60;;
27857;SDS011;16852;51.446;6.528;2023-04-25T08:31:13;9.40;;;2.55;;
27857;SDS011;16852;51.446;6.528;2023-04-25T08:33:14;15.65;;;3.20;;
27857;SDS011;16852;51.446;6.528;2023-04-25T08:35:15;9.27;;;2.20;;
27857;SDS011;16852;51.446;6.528;2023-04-25T08:37:17;5.85;;;2.22;;
27857;SDS011;16852;51.446;6.528;2023-04-25T08:39:19;7.63;;;2.28;;
27857;SDS011;16852;51.446;6.528;2023-04-25T08:41:20;7.75;;;2.22;;
27857;SDS011;16852;51.446;6.528;2023-04-25T08:43:23;9.60;;;2.57;;
27857;SDS011;16852;51.446;6.528;2023-04-25T08:45:26;5.68;;;2.25;;
27857;SDS011;16852;51.446;6.528;2023-04-25T08:47:29;8.85;;;2.40;;
27857;SDS011;16852;51.446;6.528;2023-04-25T08:49:33;4.72;;;1.70;;
27857;SDS011;16852;51.446;6.528;2023-04-25T08:51:34;5.20;;;1.50;;
27857;SDS011;16852;51.446;6.528;2023-04-25T08:53:40;4.05;;;1.23;;
27857;SDS011;16852;51.446;6.528;2023-04-25T08:55:42;5.50;;;2.10;;
27857;SDS011;16852;51.446;6.528;2023-04-25T08:57:43;5.93;;;1.85;;
27857;SDS011;16852;51.446;6.528;2023-04-25T08:59:45;13.20;;;2.10;;
27857;SDS011;16852;51.446;6.528;2023-04-25T09:01:46;7.68;;;1.80;;
27857;SDS011;16852;51.446;6.528;2023-04-25T09:03:48;4.53;;;1.70;;
27857;SDS011;16852;51.446;6.528;2023-04-25T09:05:49;6.07;;;1.45;;
27857;SDS011;16852;51.446;6.528;2023-04-25T09:07:51;5.60;;;1.77;;
27857;SDS011;16852;51.446;6.528;2023-04-25T09:09:51;9.45;;;1.63;;
27857;SDS011;16852;51.446;6.528;2023-04-25T09:11:52;9.50;;;2.22;;
27857;SDS011;16852;51.446;6.528;2023-04-25T09:14:10;5.30;;;1.52;;
27857;SDS011;16852;51.446;6.528;2023-04-25T09:16:12;4.80;;;1.55;;
27857;SDS011;16852;51.446;6.528;2023-04-25T09:20:25;4.65;;;1.40;;
27857;SDS011;16852;51.446;6.528;2023-04-25T09:22:26;5.72;;;1.70;;
27857;SDS011;16852;51.446;6.528;2023-04-25T09:26:34;6.80;;;2.00;;
27857;SDS011;16852;51.446;6.528;2023-04-25T09:28:35;6.13;;;1.65;;
27857;SDS011;16852;51.446;6.528;2023-04-25T09:30:37;6.65;;;1.42;;
27857;SDS011;16852;51.446;6.528;2023-04-25T09:32:38;5.70;;;1.70;;
27857;SDS011;16852;51.446;6.528;2023-04-25T09:34:42;3.85;;;1.33;;
27857;SDS011;16852;51.446;6.528;2023-04-25T09:36:44;9.82;;;1.85;;
27857;SDS011;16852;51.446;6.528;2023-04-25T09:38:46;7.13;;;1.92;;
27857;SDS011;16852;51.446;6.528;2023-04-25T09:40:46;9.05;;;2.17;;
27857;SDS011;16852;51.446;6.528;2023-04-25T09:42:49;7.43;;;1.40;;
27857;SDS011;16852;51.446;6.528;2023-04-25T09:44:53;5.63;;;1.63;;
27857;SDS011;16852;51.446;6.528;2023-04-25T09:46:55;3.17;;;1.13;;
27857;SDS011;16852;51.446;6.528;2023-04-25T09:48:57;4.28;;;1.63;;
27857;SDS011;16852;51.446;6.528;2023-04-25T09:51:07;6.63;;;1.55;;
27857;SDS011;16852;51.446;6.528;2023-04-25T09:53:09;5.30;;;1.40;;
27857;SDS011;16852;51.446;6.528;2023-04-25T09:55:09;8.32;;;1.60;;
27857;SDS011;16852;51.446;6.528;2023-04-25T09:57:12;10.45;;;2.10;;
27857;SDS011;16852;51.446;6.528;2023-04-25T09:59:14;7.30;;;1.98;;
27857;SDS011;16852;51.446;6.528;2023-04-25T10:01:15;4.53;;;1.63;;
27857;SDS011;16852;51.446;6.528;2023-04-25T10:03:20;3.42;;;1.48;;
27857;SDS011;16852;51.446;6.528;2023-04-25T10:05:22;7.25;;;1.83;;
27857;SDS011;16852;51.446;6.528;2023-04-25T10:07:25;5.25;;;1.63;;
27857;SDS011;16852;51.446;6.528;2023-04-25T10:09:29;6.32;;;2.13;;
27857;SDS011;16852;51.446;6.528;2023-04-25T10:11:35;7.70;;;1.48;;
27857;SDS011;16852;51.446;6.528;2023-04-25T10:13:38;5.43;;;1.65;;
27857;SDS011;16852;51.446;6.528;2023-04-25T10:15:39;4.85;;;1.90;;
27857;SDS011;16852;51.446;6.528;2023-04-25T10:17:40;8.40;;;2.10;;
27857;SDS011;16852;51.446;6.528;2023-04-25T10:19:40;6.55;;;1.50;;
27857;SDS011;16852;51.446;6.528;2023-04-25T10:21:48;3.25;;;1.15;;
27857;SDS011;16852;51.446;6.528;2023-04-25T10:23:52;6.70;;;1.95;;
27857;SDS011;16852;51.446;6.528;2023-04-25T10:25:53;5.60;;;1.30;;
27857;SDS011;16852;51.446;6.528;2023-04-25T10:27:54;4.90;;;1.55;;
27857;SDS011;16852;51.446;6.528;2023-04-25T10:30:05;4.90;;;1.98;;
27857;SDS011;16852;51.446;6.528;2023-04-25T10:32:11;4.80;;;1.60;;
27857;SDS011;16852;51.446;6.528;2023-04-25T10:34:11;5.80;;;1.75;;
27857;SDS011;16852;51.446;6.528;2023-04-25T10:36:13;7.55;;;2.10;;
27857;SDS011;16852;51.446;6.528;2023-04-25T10:38:15;6.40;;;2.05;;
27857;SDS011;16852;51.446;6.528;2023-04-25T10:40:15;4.50;;;1.40;;
27857;SDS011;16852;51.446;6.528;2023-04-25T10:42:22;11.90;;;2.15;;
27857;SDS011;16852;51.446;6.528;2023-04-25T10:44:26;8.50;;;2.05;;
27857;SDS011;16852;51.446;6.528;2023-04-25T10:46:31;5.68;;;1.90;;
27857;SDS011;16852;51.446;6.528;2023-04-25T10:48:34;5.22;;;1.80;;
27857;SDS011;16852;51.446;6.528;2023-04-25T10:50:39;4.25;;;1.80;;
27857;SDS011;16852;51.446;6.528;2023-04-25T10:52:40;6.20;;;1.95;;
27857;SDS011;16852;51.446;6.528;2023-04-25T10:54:41;10.85;;;2.42;;
27857;SDS011;16852;51.446;6.528;2023-04-25T10:56:48;5.55;;;1.60;;
27857;SDS011;16852;51.446;6.528;2023-04-25T10:58:50;7.47;;;2.10;;
27857;SDS011;16852;51.446;6.528;2023-04-25T11:00:50;4.80;;;1.65;;
27857;SDS011;16852;51.446;6.528;2023-04-25T11:02:52;8.40;;;2.38;;
27857;SDS011;16852;51.446;6.528;2023-04-25T11:04:57;6.53;;;1.77;;
27857;SDS011;16852;51.446;6.528;2023-04-25T11:07:02;6.20;;;1.63;;
27857;SDS011;16852;51.446;6.528;2023-04-25T11:09:26;8.90;;;2.10;;
27857;SDS011;16852;51.446;6.528;2023-04-25T11:11:28;7.50;;;2.27;;
27857;SDS011;16852;51.446;6.528;2023-04-25T11:13:29;10.63;;;2.25;;
27857;SDS011;16852;51.446;6.528;2023-04-25T11:15:30;8.43;;;1.92;;
27857;SDS011;16852;51.446;6.528;2023-04-25T11:17:31;10.90;;;2.00;;
27857;SDS011;16852;51.446;6.528;2023-04-25T11:19:32;5.25;;;1.60;;
27857;SDS011;16852;51.446;6.528;2023-04-25T11:21:32;5.15;;;1.55;;
27857;SDS011;16852;51.446;6.528;2023-04-25T11:23:33;3.75;;;1.63;;
27857;SDS011;16852;51.446;6.528;2023-04-25T11:25:34;4.72;;;1.40;;
27857;SDS011;16852;51.446;6.528;2023-04-25T11:27:55;5.88;;;1.65;;
27857;SDS011;16852;51.446;6.528;2023-04-25T11:29:57;4.78;;;1.52;;
27857;SDS011;16852;51.446;6.528;2023-04-25T11:31:57;4.15;;;1.30;;
27857;SDS011;16852;51.446;6.528;2023-04-25T11:33:58;4.25;;;1.80;;
27857;SDS011;16852;51.446;6.528;2023-04-25T11:35:59;5.30;;;1.77;;
27857;SDS011;16852;51.446;6.528;2023-04-25T11:38:00;5.20;;;1.75;;
27857;SDS011;16852;51.446;6.528;2023-04-25T11:40:02;3.47;;;1.30;;
27857;SDS011;16852;51.446;6.528;2023-04-25T11:42:06;4.65;;;1.30;;
27857;SDS011;16852;51.446;6.528;2023-04-25T11:44:07;3.00;;;1.20;;
27857;SDS011;16852;51.446;6.528;2023-04-25T11:46:07;3.95;;;1.30;;
27857;SDS011;16852;51.446;6.528;2023-04-25T11:48:08;6.72;;;1.60;;
27857;SDS011;16852;51.446;6.528;2023-04-25T11:50:09;3.22;;;1.42;;
27857;SDS011;16852;51.446;6.528;2023-04-25T11:52:09;4.50;;;1.50;;
27857;SDS011;16852;51.446;6.528;2023-04-25T11:54:10;5.80;;;1.63;;
27857;SDS011;16852;51.446;6.528;2023-04-25T11:56:12;3.60;;;1.42;;
27857;SDS011;16852;51.446;6.528;2023-04-25T11:58:13;2.10;;;1.08;;
27857;SDS011;16852;51.446;6.528;2023-04-25T12:00:15;3.10;;;1.33;;
27857;SDS011;16852;51.446;6.528;2023-04-25T12:02:23;3.20;;;1.48;;
27857;SDS011;16852;51.446;6.528;2023-04-25T12:04:26;3.95;;;1.67;;
27857;SDS011;16852;51.446;6.528;2023-04-25T12:06:27;4.95;;;1.42;;
27857;SDS011;16852;51.446;6.528;2023-04-25T12:08:28;2.80;;;1.40;;
27857;SDS011;16852;51.446;6.528;2023-04-25T12:10:29;5.18;;;1.27;;
27857;SDS011;16852;51.446;6.528;2023-04-25T12:12:33;7.55;;;1.70;;